createdAt,value
2018-09-24T00:01:00.972Z,9.70
2018-09-24T00:03:28.431Z,9.60
2018-09-24T00:05:56.117Z,9.60
2018-09-24T00:08:23.582Z,9.60
2018-09-24T00:10:51.017Z,9.50
2018-09-24T00:13:18.483Z,9.50
2018-09-24T00:15:45.925Z,9.40
2018-09-24T00:18:13.384Z,9.40
2018-09-24T00:20:41.610Z,9.60
2018-09-24T00:23:09.065Z,9.60
2018-09-24T00:25:36.663Z,9.60
2018-09-24T00:28:04.114Z,9.60
2018-09-24T00:30:31.546Z,9.60
2018-09-24T00:32:59.001Z,9.60
2018-09-24T00:35:26.726Z,9.50
2018-09-24T00:37:54.184Z,9.50
2018-09-24T00:40:21.642Z,9.60
2018-09-24T00:42:49.102Z,9.50
2018-09-24T00:45:16.553Z,9.60
2018-09-24T00:47:43.993Z,9.70
2018-09-24T00:50:11.461Z,9.60
2018-09-24T00:52:38.920Z,9.60
2018-09-24T00:55:06.350Z,9.70
2018-09-24T00:57:34.569Z,9.70
2018-09-24T01:00:02.022Z,9.70
2018-09-24T01:02:29.473Z,9.60
2018-09-24T01:04:56.926Z,9.60
2018-09-24T01:07:24.397Z,9.40
2018-09-24T01:09:51.865Z,9.40
2018-09-24T01:12:19.312Z,9.40
2018-09-24T01:14:46.770Z,9.30
2018-09-24T01:17:14.990Z,9.30
2018-09-24T01:19:42.441Z,9.20
2018-09-24T01:22:09.892Z,9.30
2018-09-24T01:24:38.164Z,9.20
2018-09-24T01:27:05.609Z,9.40
2018-09-24T01:29:33.821Z,9.50
2018-09-24T01:32:01.278Z,9.50
2018-09-24T01:34:28.724Z,9.50
2018-09-24T01:36:56.939Z,9.60
2018-09-24T01:39:24.397Z,9.60
2018-09-24T01:41:51.846Z,9.70
2018-09-24T01:44:19.290Z,9.60
2018-09-24T01:46:47.514Z,9.60
2018-09-24T01:49:15.036Z,9.60
2018-09-24T01:51:43.294Z,9.40
2018-09-24T01:54:11.555Z,9.40
2018-09-24T01:56:39.008Z,9.40
2018-09-24T01:59:06.469Z,9.50
2018-09-24T02:01:33.910Z,9.50
2018-09-24T02:04:01.342Z,9.60
2018-09-24T02:06:29.543Z,9.60
2018-09-24T02:08:57.009Z,9.50
2018-09-24T02:11:24.480Z,9.50
2018-09-24T02:13:51.933Z,9.50
2018-09-24T02:16:19.396Z,9.50
2018-09-24T02:18:46.831Z,9.50
2018-09-24T02:21:15.035Z,9.40
2018-09-24T02:23:42.488Z,9.40
2018-09-24T02:26:09.922Z,9.30
2018-09-24T02:28:37.357Z,9.30
2018-09-24T02:31:05.579Z,9.20
2018-09-24T02:33:33.805Z,9.20
2018-09-24T02:36:01.270Z,9.10
2018-09-24T02:38:28.733Z,9.10
2018-09-24T02:40:56.185Z,9.10
2018-09-24T02:43:23.636Z,9.10
2018-09-24T02:45:51.085Z,9.00
2018-09-24T02:48:18.525Z,9.00
2018-09-24T02:50:46.740Z,9.00
2018-09-24T02:53:14.182Z,9.00
2018-09-24T02:55:42.386Z,9.00
2018-09-24T02:58:09.861Z,9.00
2018-09-24T03:00:37.308Z,9.10
2018-09-24T03:03:04.769Z,9.00
2018-09-24T03:05:32.236Z,9.00
2018-09-24T03:07:59.701Z,9.20
2018-09-24T03:10:27.171Z,9.20
2018-09-24T03:12:54.622Z,9.20
2018-09-24T03:15:22.084Z,9.20
2018-09-24T03:17:49.770Z,9.20
2018-09-24T03:20:17.222Z,9.20
2018-09-24T03:22:44.657Z,9.10
2018-09-24T03:25:13.028Z,9.20
2018-09-24T03:27:41.246Z,9.20
2018-09-24T03:30:08.686Z,9.20
2018-09-24T03:32:36.918Z,9.10
2018-09-24T03:35:05.140Z,9.10
2018-09-24T03:37:33.352Z,9.10
2018-09-24T03:40:00.806Z,9.00
2018-09-24T03:42:28.253Z,9.10
2018-09-24T03:44:56.682Z,9.10
2018-09-24T03:47:24.129Z,9.10
2018-09-24T03:49:51.570Z,9.10
2018-09-24T03:52:19.146Z,9.10
2018-09-24T03:54:46.593Z,9.20
2018-09-24T03:57:14.041Z,9.20
2018-09-24T03:59:42.254Z,9.10
2018-09-24T04:02:09.716Z,9.10
2018-09-24T04:04:42.771Z,9.10
2018-09-24T04:07:16.954Z,9.10
2018-09-24T04:09:50.142Z,9.10
2018-09-24T04:12:23.323Z,9.10
2018-09-24T04:14:56.604Z,9.20
2018-09-24T04:17:29.679Z,9.30
2018-09-24T04:20:02.747Z,9.30
2018-09-24T04:22:35.942Z,9.30
2018-09-24T04:25:10.239Z,9.30
2018-09-24T04:27:43.641Z,9.30
2018-09-24T04:30:16.789Z,9.30
2018-09-24T04:32:50.074Z,9.30
2018-09-24T04:35:23.178Z,9.20
2018-09-24T04:37:56.264Z,9.20
2018-09-24T04:40:29.350Z,9.10
2018-09-24T04:43:02.586Z,9.10
2018-09-24T04:45:35.649Z,9.00
2018-09-24T04:48:08.863Z,8.80
2018-09-24T04:50:42.039Z,8.80
2018-09-24T04:53:15.243Z,8.80
2018-09-24T04:55:48.314Z,8.90
2018-09-24T04:58:21.523Z,9.10
2018-09-24T05:00:54.825Z,9.30
2018-09-24T05:03:27.904Z,9.60
2018-09-24T05:06:01.132Z,9.90
2018-09-24T05:08:34.693Z,10.00
2018-09-24T05:11:07.894Z,10.00
2018-09-24T05:13:41.130Z,10.00
2018-09-24T05:16:14.562Z,10.00
2018-09-24T05:18:48.392Z,10.10
2018-09-24T05:21:21.719Z,10.10
2018-09-24T05:23:54.851Z,10.20
2018-09-24T05:26:28.934Z,10.30
2018-09-24T05:29:02.045Z,10.30
2018-09-24T05:31:35.996Z,10.20
2018-09-24T05:34:09.239Z,10.10
2018-09-24T05:36:42.494Z,10.20
2018-09-24T05:39:15.672Z,10.20
2018-09-24T05:41:49.740Z,10.10
2018-09-24T05:44:22.758Z,10.10
2018-09-24T05:46:55.969Z,10.00
2018-09-24T05:49:29.105Z,9.90
2018-09-24T05:52:02.268Z,9.80
2018-09-24T05:54:35.452Z,9.80
2018-09-24T05:57:08.567Z,9.80
2018-09-24T05:59:42.016Z,9.80
2018-09-24T06:02:15.943Z,9.90
2018-09-24T06:04:49.165Z,9.90
2018-09-24T06:07:22.378Z,9.80
2018-09-24T06:09:55.577Z,9.70
2018-09-24T06:12:28.784Z,9.70
2018-09-24T06:15:01.937Z,9.80
2018-09-24T06:17:35.203Z,9.80
2018-09-24T06:20:08.357Z,9.80
2018-09-24T06:22:41.442Z,9.90
2018-09-24T06:25:14.689Z,10.10
2018-09-24T06:27:48.061Z,10.10
2018-09-24T06:30:22.069Z,10.40
2018-09-24T06:32:55.843Z,10.50
2018-09-24T06:35:29.094Z,10.50
2018-09-24T06:38:02.316Z,10.60
2018-09-24T06:40:35.604Z,10.50
2018-09-24T06:43:08.781Z,10.50
2018-09-24T06:45:41.946Z,10.50
2018-09-24T06:48:15.960Z,10.60
2018-09-24T06:50:50.059Z,10.40
2018-09-24T06:53:23.324Z,10.40
2018-09-24T06:55:56.689Z,10.30
2018-09-24T06:58:29.754Z,10.10
2018-09-24T07:01:03.618Z,10.00
2018-09-24T07:03:36.703Z,10.00
2018-09-24T07:06:09.893Z,10.00
2018-09-24T07:08:43.200Z,10.00
2018-09-24T07:11:16.416Z,10.00
2018-09-24T07:13:49.614Z,10.00
2018-09-24T07:16:22.749Z,10.10
2018-09-24T07:18:55.946Z,10.20
2018-09-24T07:21:29.107Z,10.40
2018-09-24T07:24:02.226Z,10.70
2018-09-24T07:26:35.326Z,10.70
2018-09-24T07:29:08.393Z,10.70
2018-09-24T07:31:42.281Z,10.30
2018-09-24T07:34:15.522Z,10.30
2018-09-24T07:36:48.730Z,10.20
2018-09-24T07:39:21.952Z,10.20
2018-09-24T07:41:55.156Z,10.10
2018-09-24T07:44:28.284Z,10.10
2018-09-24T07:47:01.499Z,10.90
2018-09-24T07:49:34.790Z,11.10
2018-09-24T07:52:07.969Z,11.60
2018-09-24T07:54:41.168Z,12.00
2018-09-24T07:57:14.322Z,12.30
2018-09-24T07:59:48.280Z,12.90
2018-09-24T08:02:21.486Z,12.80
2018-09-24T08:04:54.537Z,11.90
2018-09-24T08:07:29.094Z,12.20
2018-09-24T08:10:03.028Z,12.80
2018-09-24T08:12:36.394Z,12.80
2018-09-24T08:15:09.667Z,13.10
2018-09-24T08:17:42.777Z,13.20
2018-09-24T08:20:15.972Z,13.30
2018-09-24T08:22:49.158Z,13.50
2018-09-24T08:25:23.486Z,13.80
2018-09-24T08:27:56.934Z,13.80
2018-09-24T08:30:29.966Z,13.90
2018-09-24T08:33:03.167Z,13.90
2018-09-24T08:35:36.396Z,13.90
2018-09-24T08:38:10.359Z,14.00
2018-09-24T08:40:43.597Z,14.30
2018-09-24T08:43:16.750Z,14.20
2018-09-24T08:45:49.790Z,13.60
2018-09-24T08:48:23.036Z,13.30
2018-09-24T08:50:56.229Z,12.90
2018-09-24T08:53:29.766Z,12.60
2018-09-24T08:56:02.767Z,13.00
2018-09-24T08:58:36.068Z,12.60
2018-09-24T09:01:09.185Z,12.60
2018-09-24T09:03:43.246Z,14.00
2018-09-24T09:08:46.988Z,14.30
2018-09-24T09:11:20.130Z,14.50
2018-09-24T09:13:53.574Z,14.60
2018-09-24T09:16:26.703Z,14.00
2018-09-24T09:18:59.946Z,13.30
2018-09-24T09:21:33.228Z,13.10
2018-09-24T09:24:06.477Z,13.40
2018-09-24T09:26:39.607Z,13.90
2018-09-24T09:29:13.120Z,14.10
2018-09-24T09:31:46.312Z,14.20
2018-09-24T09:34:20.637Z,14.40
2018-09-24T09:36:53.920Z,14.40
2018-09-24T09:39:27.450Z,14.50
2018-09-24T09:42:00.726Z,14.60
2018-09-24T09:44:33.811Z,14.70
2018-09-24T09:47:07.126Z,14.80
2018-09-24T09:49:40.303Z,15.00
2018-09-24T09:52:13.391Z,15.20
2018-09-24T09:54:46.703Z,14.90
2018-09-24T09:57:19.840Z,14.90
2018-09-24T09:59:53.694Z,15.10
2018-09-24T10:02:26.794Z,15.10
2018-09-24T10:04:59.971Z,15.10
2018-09-24T10:07:33.150Z,14.90
2018-09-24T10:10:06.389Z,14.90
2018-09-24T10:12:41.157Z,14.90
2018-09-24T10:15:14.382Z,14.90
2018-09-24T10:17:47.635Z,15.20
2018-09-24T10:20:21.525Z,15.20
2018-09-24T10:22:55.616Z,15.20
2018-09-24T10:25:28.761Z,15.20
2018-09-24T10:28:01.891Z,15.10
2018-09-24T10:30:35.077Z,15.20
2018-09-24T10:33:08.348Z,15.30
2018-09-24T10:35:41.563Z,15.50
2018-09-24T10:38:14.779Z,15.60
2018-09-24T10:40:47.923Z,15.60
2018-09-24T10:43:21.165Z,14.90
2018-09-24T10:45:54.361Z,14.70
2018-09-24T10:48:27.595Z,14.90
2018-09-24T10:51:00.671Z,14.60
2018-09-24T10:53:33.790Z,14.60
2018-09-24T10:56:06.791Z,15.00
2018-09-24T10:58:40.163Z,15.20
2018-09-24T11:01:13.410Z,15.20
2018-09-24T11:03:46.663Z,15.10
2018-09-24T11:06:19.968Z,15.40
2018-09-24T11:08:53.255Z,15.30
2018-09-24T11:11:26.553Z,15.70
2018-09-24T11:13:59.936Z,15.50
2018-09-24T11:16:33.234Z,15.40
2018-09-24T11:19:07.039Z,15.40
2018-09-24T11:21:40.165Z,15.40
2018-09-24T11:24:13.395Z,15.20
2018-09-24T11:26:47.263Z,15.30
2018-09-24T11:29:20.545Z,15.30
2018-09-24T11:31:53.804Z,15.30
2018-09-24T11:34:27.619Z,15.00
2018-09-24T11:37:00.955Z,15.00
2018-09-24T11:39:33.983Z,15.00
2018-09-24T11:42:07.856Z,14.60
2018-09-24T11:44:41.020Z,14.60
2018-09-24T11:47:14.240Z,14.60
2018-09-24T11:49:47.395Z,14.20
2018-09-24T11:52:20.642Z,14.30
2018-09-24T11:54:53.783Z,14.70
2018-09-24T11:57:27.110Z,14.90
2018-09-24T12:00:00.144Z,15.00
2018-09-24T12:02:34.545Z,15.20
2018-09-24T12:05:07.780Z,15.10
2018-09-24T12:07:40.960Z,15.20
2018-09-24T12:10:14.232Z,15.00
2018-09-24T12:12:47.210Z,15.10
2018-09-24T12:15:20.421Z,14.80
2018-09-24T12:17:54.488Z,15.30
2018-09-24T12:20:28.214Z,15.30
2018-09-24T12:23:01.335Z,15.20
2018-09-24T12:25:34.550Z,15.50
2018-09-24T12:28:07.776Z,15.40
2018-09-24T12:30:41.056Z,15.60
2018-09-24T12:33:14.331Z,15.50
2018-09-24T12:35:47.335Z,15.60
2018-09-24T12:38:21.755Z,15.30
2018-09-24T12:40:54.995Z,15.30
2018-09-24T12:43:28.272Z,15.10
2018-09-24T12:46:01.563Z,15.20
2018-09-24T12:48:35.047Z,15.30
2018-09-24T12:51:08.255Z,15.30
2018-09-24T12:53:41.699Z,15.10
2018-09-24T12:56:15.976Z,14.50
2018-09-24T12:58:49.105Z,14.50
2018-09-24T13:01:22.315Z,14.40
2018-09-24T13:03:55.607Z,14.60
2018-09-24T13:06:28.694Z,14.70
2018-09-24T13:09:01.767Z,14.80
2018-09-24T13:11:35.796Z,14.70
2018-09-24T13:14:09.004Z,14.60
2018-09-24T13:16:42.059Z,14.60
2018-09-24T13:19:15.988Z,14.60
2018-09-24T13:21:49.185Z,14.60
2018-09-24T13:24:22.391Z,14.70
2018-09-24T13:26:55.739Z,14.90
2018-09-24T13:29:29.669Z,14.90
2018-09-24T13:32:02.928Z,14.90
2018-09-24T13:34:36.168Z,14.60
2018-09-24T13:37:09.456Z,14.60
2018-09-24T13:39:42.669Z,14.60
2018-09-24T13:42:16.294Z,14.30
2018-09-24T13:44:49.436Z,14.70
2018-09-24T13:47:22.517Z,14.80
2018-09-24T13:49:56.378Z,14.90
2018-09-24T13:52:29.568Z,14.80
2018-09-24T13:55:02.840Z,14.60
2018-09-24T13:57:36.057Z,14.90
2018-09-24T14:00:09.220Z,14.90
2018-09-24T14:02:42.486Z,14.70
2018-09-24T14:05:16.469Z,14.40
2018-09-24T14:07:49.810Z,14.40
2018-09-24T14:10:22.967Z,14.30
2018-09-24T14:12:56.247Z,14.30
2018-09-24T14:15:29.520Z,14.40
2018-09-24T14:18:02.807Z,14.30
2018-09-24T14:20:36.217Z,14.10
2018-09-24T14:23:09.321Z,14.10
2018-09-24T14:25:42.646Z,14.40
2018-09-24T14:28:16.511Z,14.50
2018-09-24T14:30:50.019Z,14.40
2018-09-24T14:33:23.278Z,14.50
2018-09-24T14:35:56.518Z,14.40
2018-09-24T14:38:29.917Z,14.30
2018-09-24T14:41:03.134Z,14.10
2018-09-24T14:43:37.307Z,14.20
2018-09-24T14:46:10.588Z,14.20
2018-09-24T14:48:43.785Z,14.10
2018-09-24T14:51:17.069Z,14.10
2018-09-24T14:53:50.387Z,14.00
2018-09-24T14:56:23.644Z,13.90
2018-09-24T14:58:57.091Z,14.00
2018-09-24T15:01:31.484Z,13.90
2018-09-24T15:04:04.780Z,13.90
2018-09-24T15:06:38.074Z,13.80
2018-09-24T15:09:11.303Z,13.80
2018-09-24T15:11:44.539Z,13.90
2018-09-24T15:14:17.783Z,13.90
2018-09-24T15:16:51.032Z,14.00
2018-09-24T15:19:24.247Z,13.90
2018-09-24T15:21:57.592Z,13.80
2018-09-24T15:24:31.395Z,13.80
2018-09-24T15:27:05.307Z,13.70
2018-09-24T15:29:39.162Z,13.70
2018-09-24T15:32:12.389Z,13.70
2018-09-24T15:34:45.640Z,13.70
2018-09-24T15:37:18.921Z,13.60
2018-09-24T15:39:52.126Z,13.60
2018-09-24T15:42:25.308Z,13.60
2018-09-24T15:44:58.503Z,13.70
2018-09-24T15:47:31.697Z,13.60
2018-09-24T15:50:05.908Z,13.60
2018-09-24T15:52:39.108Z,13.60
2018-09-24T15:55:12.279Z,13.70
2018-09-24T15:57:45.572Z,13.80
2018-09-24T16:00:19.396Z,13.90
2018-09-24T16:02:52.587Z,13.90
2018-09-24T16:05:25.867Z,13.70
2018-09-24T16:07:59.138Z,13.60
2018-09-24T16:10:33.007Z,13.60
2018-09-24T16:13:06.299Z,13.60
2018-09-24T16:15:39.493Z,13.60
2018-09-24T16:18:12.780Z,13.60
2018-09-24T16:20:46.175Z,13.60
2018-09-24T16:23:19.368Z,13.70
2018-09-24T16:25:52.582Z,13.60
2018-09-24T16:28:25.852Z,13.60
2018-09-24T16:30:59.067Z,13.70
2018-09-24T16:33:32.262Z,13.70
2018-09-24T16:36:05.551Z,13.70
2018-09-24T16:38:38.724Z,13.70
2018-09-24T16:41:11.966Z,13.60
2018-09-24T16:43:45.210Z,13.40
2018-09-24T16:46:18.400Z,13.30
2018-09-24T16:48:51.671Z,13.30
2018-09-24T16:51:25.531Z,13.20
2018-09-24T16:53:58.796Z,13.20
2018-09-24T16:56:32.039Z,13.30
2018-09-24T16:59:05.304Z,13.20
2018-09-24T17:01:38.549Z,13.20
2018-09-24T17:04:12.580Z,13.10
2018-09-24T17:06:45.764Z,13.10
2018-09-24T17:09:18.928Z,13.10
2018-09-24T17:11:52.101Z,13.00
2018-09-24T17:14:25.268Z,13.00
2018-09-24T17:16:58.545Z,12.90
2018-09-24T17:19:31.753Z,13.00
2018-09-24T17:22:04.967Z,13.00
2018-09-24T17:24:38.308Z,13.00
2018-09-24T17:27:12.143Z,12.90
2018-09-24T17:29:46.145Z,12.90
2018-09-24T17:32:19.380Z,13.00
2018-09-24T17:34:52.689Z,13.00
2018-09-24T17:37:25.978Z,12.80
2018-09-24T17:39:59.245Z,12.70
2018-09-24T17:42:32.768Z,13.10
2018-09-24T17:45:05.904Z,13.00
2018-09-24T17:47:40.192Z,12.60
2018-09-24T17:50:14.014Z,12.70
2018-09-24T17:52:48.161Z,12.90
2018-09-24T17:55:22.285Z,12.90
2018-09-24T17:57:55.528Z,12.90
2018-09-24T18:00:29.583Z,12.70
2018-09-24T18:03:02.863Z,12.70
2018-09-24T18:05:36.169Z,12.70
2018-09-24T18:08:09.224Z,12.70
2018-09-24T18:10:43.228Z,12.90
2018-09-24T18:13:17.227Z,12.90
2018-09-24T18:15:50.485Z,12.50
2018-09-24T18:18:23.801Z,12.50
2018-09-24T18:20:57.064Z,12.70
2018-09-24T18:23:30.397Z,12.60
2018-09-24T18:26:06.585Z,12.90
2018-09-24T18:28:39.670Z,12.50
2018-09-24T18:31:13.613Z,12.60
2018-09-24T18:33:46.764Z,12.50
2018-09-24T18:36:19.985Z,12.50
2018-09-24T18:38:53.272Z,12.50
2018-09-24T18:41:27.328Z,12.50
2018-09-24T18:44:00.627Z,12.40
2018-09-24T18:46:33.890Z,12.40
2018-09-24T18:49:07.110Z,12.60
2018-09-24T18:51:40.363Z,12.60
2018-09-24T18:54:14.174Z,12.60
2018-09-24T18:56:48.339Z,12.60
2018-09-24T18:59:21.404Z,12.60
2018-09-24T19:01:54.609Z,12.60
2018-09-24T19:04:27.828Z,12.50
2018-09-24T19:07:01.087Z,12.50
2018-09-24T19:09:34.319Z,12.30
2018-09-24T19:12:07.806Z,12.40
2018-09-24T19:14:41.051Z,12.30
2018-09-24T19:17:14.197Z,12.20
2018-09-24T19:19:47.397Z,12.20
2018-09-24T19:22:20.616Z,12.30
2018-09-24T19:24:54.596Z,11.90
2018-09-24T19:27:27.784Z,11.90
2018-09-24T19:30:00.963Z,11.90
2018-09-24T19:32:34.136Z,11.90
2018-09-24T19:35:07.438Z,11.50
2018-09-24T19:37:40.825Z,11.30
2018-09-24T19:40:14.014Z,11.30
2018-09-24T19:42:47.329Z,11.50
2018-09-24T19:45:20.518Z,11.20
2018-09-24T19:47:54.030Z,11.20
2018-09-24T19:50:27.299Z,11.20
2018-09-24T19:53:00.599Z,11.10
2018-09-24T19:55:33.736Z,11.30
2018-09-24T19:58:06.968Z,11.50
2018-09-24T20:00:40.003Z,11.30
2018-09-24T20:03:13.265Z,11.30
2018-09-24T20:05:46.469Z,11.40
2018-09-24T20:08:19.730Z,11.50
2018-09-24T20:10:53.164Z,11.40
2018-09-24T20:13:26.440Z,11.40
2018-09-24T20:15:59.751Z,11.70
2018-09-24T20:18:32.983Z,11.80
2018-09-24T20:21:07.047Z,11.60
2018-09-24T20:23:40.375Z,11.50
2018-09-24T20:26:14.271Z,11.40
2018-09-24T20:28:47.543Z,11.40
2018-09-24T20:31:20.835Z,11.40
2018-09-24T20:33:53.965Z,11.50
2018-09-24T20:36:27.216Z,11.50
2018-09-24T20:39:00.522Z,11.70
2018-09-24T20:41:33.684Z,11.70
2018-09-24T20:44:07.020Z,11.60
2018-09-24T20:46:40.293Z,11.70
2018-09-24T20:49:13.594Z,11.90
2018-09-24T20:51:46.772Z,11.80
2018-09-24T20:54:20.938Z,11.80
2018-09-24T20:56:54.282Z,11.80
2018-09-24T20:59:27.537Z,11.70
2018-09-24T21:02:00.715Z,11.70
2018-09-24T21:04:33.980Z,11.80
2018-09-24T21:07:07.301Z,11.60
2018-09-24T21:09:40.563Z,11.60
2018-09-24T21:12:13.602Z,11.30
2018-09-24T21:14:47.082Z,11.40
2018-09-24T21:17:20.223Z,11.50
2018-09-24T21:19:53.417Z,11.40
2018-09-24T21:22:27.467Z,11.20
2018-09-24T21:25:00.761Z,11.20
2018-09-24T21:27:33.935Z,11.50
2018-09-24T21:30:07.088Z,11.50
2018-09-24T21:32:41.246Z,11.20
2018-09-24T21:35:14.450Z,11.10
2018-09-24T21:37:47.728Z,11.20
2018-09-24T21:40:20.942Z,11.30
2018-09-24T21:42:54.110Z,11.40
2018-09-24T21:45:27.260Z,11.30
2018-09-24T21:48:00.491Z,11.20
2018-09-24T21:50:33.804Z,11.10
2018-09-24T21:53:07.116Z,11.20
2018-09-24T21:55:40.386Z,11.30
2018-09-24T21:58:13.683Z,11.30
2018-09-24T22:00:46.919Z,11.20
2018-09-24T22:03:20.090Z,11.20
2018-09-24T22:05:53.350Z,11.30
2018-09-24T22:08:26.655Z,11.20
2018-09-24T22:10:59.751Z,11.20
2018-09-24T22:13:32.976Z,11.20
2018-09-24T22:16:06.307Z,11.20
2018-09-24T22:18:39.402Z,11.20
2018-09-24T22:21:12.519Z,11.30
2018-09-24T22:23:45.656Z,11.10
2018-09-24T22:26:18.840Z,11.20
2018-09-24T22:28:52.228Z,11.20
2018-09-24T22:31:25.349Z,11.00
2018-09-24T22:33:59.382Z,10.80
2018-09-24T22:36:32.492Z,10.70
2018-09-24T22:39:05.884Z,10.60
2018-09-24T22:41:39.181Z,10.60
2018-09-24T22:44:12.499Z,10.40
2018-09-24T22:46:45.802Z,10.50
2018-09-24T22:49:19.077Z,10.50
2018-09-24T22:51:52.354Z,10.90
2018-09-24T22:54:25.664Z,10.90
2018-09-24T22:56:58.910Z,10.90
2018-09-24T22:59:33.051Z,11.10
2018-09-24T23:02:06.255Z,11.10
2018-09-24T23:04:40.255Z,10.90
2018-09-24T23:07:13.649Z,10.90
2018-09-24T23:09:46.674Z,10.70
2018-09-24T23:12:19.931Z,10.60
2018-09-24T23:14:53.480Z,10.40
2018-09-24T23:17:26.603Z,10.30
2018-09-24T23:20:00.722Z,10.20
2018-09-24T23:22:34.766Z,10.30
2018-09-24T23:25:08.067Z,10.20
2018-09-24T23:27:41.343Z,10.40
2018-09-24T23:30:14.600Z,10.40
2018-09-24T23:32:47.927Z,10.70
2018-09-24T23:35:21.151Z,10.90
2018-09-24T23:37:54.367Z,10.90
2018-09-24T23:40:27.635Z,10.80
2018-09-24T23:43:00.924Z,10.80
2018-09-24T23:45:34.220Z,10.80
2018-09-24T23:48:07.602Z,10.70
2018-09-24T23:50:40.716Z,10.60
2018-09-24T23:53:14.132Z,10.40
2018-09-24T23:55:48.787Z,10.10
2018-09-24T23:58:22.878Z,10.40
